Gloster, Mississippi
Current Conditions -  °F | °C
As of 11:53 PM on Friday 28 Nov 2014 (Local Time) from KMCB Reporting Station
Clear Clear  
Wind Chill: 35°   Ceiling: Unl
Heat Index: 39°   Visibility: 9mi
Dew Point: 36°   Wind: 6mph
Humidity: 89%   Direction: 160°SSE
Pressure: 30.22"   Gusts: NA
Location:  31.2°N, 91.02°W
Report Text: KMCB 290553Z AUTO 16005KT 9SM CLR 04/02 A3022 RMK AO2 SLP231 T00390022 10089 20039 401561006 58009
Loading
Personal Weather Stations






























Interactive Weather Map New forecast layout! Learn more

10-Day Weather Forecast

Advertisements
Track Severe Weather on mobile